Time;durP1;ratioP1;P1;durP2;ratioP2;P2;SDS_P1;SDS_P2;PMS_P1;PMS_P2;Temp;Humidity;BMP_temperature;BMP_pressure;BME280_temperature;BME280_humidity;BME280_pressure;Samples;Min_cycle;Max_cycle;Signal;HPM_P1;HPM_P2
2023/10/25 00:01:24;;;;;;;1999.90;999.90;;;10.10;99.90;;;;;;5042795;28;20041;-70
2023/10/25 00:03:50;;;;;;;1999.90;999.90;;;10.10;99.90;;;;;;5048580;28;20376;-69
2023/10/25 00:06:15;;;;;;;1999.90;999.90;;;10.20;99.90;;;;;;5051566;28;20120;-69
2023/10/25 00:08:41;;;;;;;1999.90;999.90;;;10.20;99.90;;;;;;5044722;28;20045;-70
2023/10/25 00:11:08;;;;;;;1999.90;999.90;;;10.10;99.90;;;;;;5042006;28;20037;-69
2023/10/25 00:13:34;;;;;;;1999.90;999.90;;;10.20;99.90;;;;;;5048638;28;20371;-69
2023/10/25 00:16:00;;;;;;;1999.90;999.90;;;10.10;99.90;;;;;;5048071;28;20032;-81
2023/10/25 00:18:27;;;;;;;1999.90;999.90;;;10.10;99.90;;;;;;5045211;28;20099;-69
2023/10/25 00:20:53;;;;;;;1999.90;999.90;;;10.10;99.90;;;;;;5042687;28;20418;-69
2023/10/25 00:23:19;;;;;;;1999.90;999.90;;;10.10;99.90;;;;;;5046256;28;20018;-69
2023/10/25 00:25:49;;;;;;;1999.90;999.90;;;10.10;99.90;;;;;;5039862;28;20408;-69
2023/10/25 00:28:15;;;;;;;1999.90;999.90;;;10.10;99.90;;;;;;5039947;28;20072;-69
2023/10/25 00:30:41;;;;;;;1999.90;999.90;;;10.10;99.90;;;;;;5048396;28;20025;-69
2023/10/25 00:33:07;;;;;;;1999.90;999.90;;;10.10;99.90;;;;;;5044792;28;20022;-69
2023/10/25 00:35:33;;;;;;;1999.90;999.90;;;10.10;99.90;;;;;;5044574;28;20021;-69
2023/10/25 00:37:58;;;;;;;1999.90;999.90;;;10.10;99.90;;;;;;5041629;28;20026;-69
2023/10/25 00:40:24;;;;;;;1999.90;999.90;;;10.20;99.90;;;;;;5042185;28;20025;-82
2023/10/25 00:42:50;;;;;;;1999.90;999.90;;;10.20;99.90;;;;;;5041456;28;20029;-69
2023/10/25 00:45:16;;;;;;;1999.90;999.90;;;10.20;99.90;;;;;;5045963;28;20035;-70
2023/10/25 00:47:43;;;;;;;1999.90;999.90;;;10.20;99.90;;;;;;5046069;28;20037;-70
2023/10/25 00:50:10;;;;;;;1999.90;999.90;;;10.10;99.90;;;;;;5040647;28;20132;-70
2023/10/25 00:52:36;;;;;;;;;;;10.10;99.90;;;;;;5051953;28;20072;-75
2023/10/25 00:55:03;;;;;;;1999.90;999.90;;;10.10;99.90;;;;;;5042446;28;19917;-69
2023/10/25 00:57:29;;;;;;;;;;;10.10;99.90;;;;;;5045848;28;20112;-69
2023/10/25 00:59:55;;;;;;;1999.90;999.90;;;10.10;99.90;;;;;;5051209;28;19945;-69
2023/10/25 01:02:21;;;;;;;1999.90;999.90;;;10.00;99.90;;;;;;5045132;28;20083;-69
2023/10/25 01:04:46;;;;;;;1999.90;999.90;;;10.00;99.90;;;;;;5053323;28;20104;-69
2023/10/25 01:07:12;;;;;;;1999.90;999.90;;;10.00;99.90;;;;;;5052922;28;20060;-69
2023/10/25 01:09:38;;;;;;;1999.90;999.90;;;10.00;99.90;;;;;;5046812;28;20293;-69
2023/10/25 01:12:04;;;;;;;1999.90;999.90;;;10.00;99.90;;;;;;5050589;28;20063;-69
2023/10/25 01:14:33;;;;;;;1999.90;999.90;;;9.90;99.90;;;;;;5051031;28;20393;-69
2023/10/25 01:16:59;;;;;;;1999.90;999.90;;;9.90;99.90;;;;;;5053644;28;20037;-69
2023/10/25 01:19:24;;;;;;;1999.90;999.90;;;9.90;99.90;;;;;;5052824;28;20029;-69
2023/10/25 01:21:50;;;;;;;1999.90;999.90;;;9.90;99.90;;;;;;5051044;28;20025;-69
2023/10/25 01:24:16;;;;;;;1999.90;999.90;;;9.90;99.90;;;;;;5053554;28;20078;-70
2023/10/25 01:26:42;;;;;;;1999.90;999.90;;;9.90;99.90;;;;;;5055384;28;20036;-69
2023/10/25 01:29:08;;;;;;;1999.90;999.90;;;9.90;99.90;;;;;;5053991;28;20044;-69
2023/10/25 01:31:33;;;;;;;1999.90;999.90;;;9.90;99.90;;;;;;5051211;28;20033;-69
2023/10/25 01:33:59;;;;;;;1999.90;999.90;;;9.90;99.90;;;;;;5050521;28;20440;-70
2023/10/25 01:36:25;;;;;;;1999.90;999.90;;;9.90;99.90;;;;;;5047482;28;20033;-69
2023/10/25 01:38:50;;;;;;;1999.90;999.90;;;9.90;99.90;;;;;;5054654;28;20166;-69
2023/10/25 01:41:16;;;;;;;1999.90;999.90;;;9.90;99.90;;;;;;5043175;28;20021;-83
2023/10/25 01:43:43;;;;;;;1999.90;999.90;;;9.90;99.90;;;;;;5047656;28;20044;-69
2023/10/25 01:46:09;;;;;;;1999.90;999.90;;;9.80;99.90;;;;;;5052208;28;20037;-69
2023/10/25 01:48:37;;;;;;;1999.90;999.90;;;9.80;99.90;;;;;;5042230;28;20053;-69
2023/10/25 01:51:05;;;;;;;1999.90;999.90;;;9.80;99.90;;;;;;5044935;28;20097;-70
2023/10/25 01:53:33;;;;;;;1999.90;999.90;;;9.80;99.90;;;;;;5047681;28;20020;-69
2023/10/25 01:55:58;;;;;;;1999.90;999.90;;;9.70;99.90;;;;;;5046748;28;20032;-69
2023/10/25 01:58:24;;;;;;;1999.90;999.90;;;9.80;99.90;;;;;;5043057;28;20037;-70
2023/10/25 02:00:50;;;;;;;1999.90;999.90;;;9.70;99.90;;;;;;5043786;28;20021;-69
2023/10/25 02:03:16;;;;;;;1999.90;999.90;;;9.70;99.90;;;;;;5050628;28;20025;-69
2023/10/25 02:05:42;;;;;;;1999.90;999.90;;;9.70;99.90;;;;;;5051013;28;20440;-69
2023/10/25 02:08:07;;;;;;;1999.90;999.90;;;9.70;99.90;;;;;;5044825;28;20021;-69
2023/10/25 02:10:36;;;;;;;1999.90;999.90;;;9.70;99.90;;;;;;5053714;28;20029;-69
2023/10/25 02:13:01;;;;;;;1999.90;999.90;;;9.70;99.90;;;;;;5047501;28;20037;-69
2023/10/25 02:15:27;;;;;;;1999.90;999.90;;;9.60;99.90;;;;;;5050452;28;20024;-83
2023/10/25 02:17:53;;;;;;;1999.90;999.90;;;9.60;99.90;;;;;;5048115;28;20067;-69
2023/10/25 02:20:19;;;;;;;1999.90;999.90;;;9.50;99.90;;;;;;5050044;28;20290;-69
2023/10/25 02:22:45;;;;;;;1999.90;999.90;;;9.60;99.90;;;;;;5045744;28;20021;-69
2023/10/25 02:25:11;;;;;;;1999.90;999.90;;;9.60;99.90;;;;;;5043332;28;20017;-83
2023/10/25 02:27:36;;;;;;;1999.90;999.90;;;9.50;99.90;;;;;;5042907;28;20026;-69
2023/10/25 02:30:04;;;;;;;1999.90;999.90;;;9.50;99.90;;;;;;5048327;28;20037;-69
2023/10/25 02:32:30;;;;;;;1999.90;999.90;;;9.50;99.90;;;;;;5050268;28;20372;-84
2023/10/25 02:34:56;;;;;;;1999.90;999.90;;;9.50;99.90;;;;;;5046078;28;20048;-69
2023/10/25 02:37:21;;;;;;;1999.90;999.90;;;9.50;99.90;;;;;;5040487;28;20033;-85
2023/10/25 02:39:47;;;;;;;1999.90;999.90;;;9.50;99.90;;;;;;5039581;28;20029;-69
2023/10/25 02:42:13;;;;;;;1999.90;999.90;;;9.40;99.90;;;;;;5043447;28;20026;-70
2023/10/25 02:44:39;;;;;;;1999.90;999.90;;;9.40;99.90;;;;;;5051458;28;20077;-69
2023/10/25 02:47:06;;;;;;;1999.90;999.90;;;9.40;99.90;;;;;;5051901;28;20289;-69
2023/10/25 02:49:33;;;;;;;1999.90;999.90;;;9.40;99.90;;;;;;5045357;28;20052;-69
2023/10/25 02:51:59;;;;;;;1999.90;999.90;;;9.30;99.90;;;;;;5053107;28;20037;-69
2023/10/25 02:54:24;;;;;;;1999.90;999.90;;;9.30;99.90;;;;;;5051818;28;20020;-69
2023/10/25 02:56:50;;;;;;;1999.90;999.90;;;9.30;99.90;;;;;;5053157;28;20025;-69
2023/10/25 02:59:16;;;;;;;1999.90;999.90;;;9.30;99.90;;;;;;5052665;28;20102;-69
2023/10/25 03:01:42;;;;;;;1999.90;999.90;;;9.30;99.90;;;;;;5047543;28;20531;-69
2023/10/25 03:04:08;;;;;;;1999.90;999.90;;;9.20;99.90;;;;;;5054073;28;20060;-69
2023/10/25 03:06:33;;;;;;;1999.90;999.90;;;9.20;99.90;;;;;;5053076;28;20102;-68
2023/10/25 03:08:59;;;;;;;1999.90;999.90;;;9.10;99.90;;;;;;5048464;28;20029;-69
2023/10/25 03:11:25;;;;;;;1999.90;999.90;;;9.10;99.90;;;;;;5054189;28;20017;-69
2023/10/25 03:13:51;;;;;;;1999.90;999.90;;;9.10;99.90;;;;;;5047977;28;20451;-69
2023/10/25 03:16:16;;;;;;;1999.90;999.90;;;9.10;99.90;;;;;;5053988;28;20344;-84
2023/10/25 03:18:42;;;;;;;1999.90;999.90;;;9.10;99.90;;;;;;5048783;28;20112;-69
2023/10/25 03:21:08;;;;;;;1999.90;999.90;;;9.00;99.90;;;;;;5049264;28;20301;-69
2023/10/25 03:23:34;;;;;;;1999.90;999.90;;;9.00;99.90;;;;;;5052540;28;20016;-69
2023/10/25 03:26:07;;;;;;;1999.90;999.90;;;9.00;99.90;;;;;;5045730;28;20025;-68
2023/10/25 03:28:33;;;;;;;1999.90;999.90;;;8.90;99.90;;;;;;5048585;28;20083;-68
2023/10/25 03:31:05;;;;;;;1999.90;999.90;;;8.90;99.90;;;;;;5045741;28;20025;-68
2023/10/25 03:33:31;;;;;;;1999.90;999.90;;;8.90;99.90;;;;;;5049547;28;20108;-69
2023/10/25 03:35:57;;;;;;;1999.90;999.90;;;8.90;99.90;;;;;;5050535;28;20074;-69
2023/10/25 03:38:23;;;;;;;1999.90;999.90;;;8.80;99.90;;;;;;5048125;28;20412;-69
2023/10/25 03:40:49;;;;;;;1999.90;999.90;;;8.80;99.90;;;;;;5052152;28;20021;-81
2023/10/25 03:43:14;;;;;;;1999.90;999.90;;;8.80;99.90;;;;;;5053130;28;20032;-69
2023/10/25 03:45:40;;;;;;;1999.90;999.90;;;8.70;99.90;;;;;;5043120;28;20025;-69
2023/10/25 03:48:06;;;;;;;1999.90;999.90;;;8.70;99.90;;;;;;5044108;28;20435;-68
2023/10/25 03:50:31;;;;;;;1999.90;999.90;;;8.70;99.90;;;;;;5045507;28;20049;-80
2023/10/25 03:52:57;;;;;;;1999.90;999.90;;;8.60;99.90;;;;;;5048050;28;20029;-69
2023/10/25 03:55:23;;;;;;;1999.90;999.90;;;8.60;99.90;;;;;;5041619;28;20471;-69
2023/10/25 03:57:49;;;;;;;1999.90;999.90;;;8.60;99.90;;;;;;5044708;28;20075;-69
2023/10/25 04:00:15;;;;;;;1999.90;999.90;;;8.50;99.90;;;;;;5045035;28;20092;-68
2023/10/25 04:02:40;;;;;;;1999.90;999.90;;;8.50;99.90;;;;;;5045420;28;20042;-69
2023/10/25 04:05:06;;;;;;;1999.90;999.90;;;8.50;99.90;;;;;;5050239;28;20072;-69
2023/10/25 04:07:32;;;;;;;1999.90;999.90;;;8.40;99.90;;;;;;5045629;28;20375;-72
2023/10/25 04:09:58;;;;;;;1999.90;999.90;;;8.40;99.90;;;;;;5044156;28;20071;-68
2023/10/25 04:12:24;;;;;;;1999.90;999.90;;;8.40;99.90;;;;;;5045417;28;20947;-68
2023/10/25 04:14:49;;;;;;;1999.90;999.90;;;8.30;99.90;;;;;;5046663;28;20028;-68
2023/10/25 04:17:15;;;;;;;1999.90;999.90;;;8.30;99.90;;;;;;5045538;28;20056;-69
2023/10/25 04:19:41;;;;;;;1999.90;999.90;;;8.30;99.90;;;;;;5046242;28;20032;-68
2023/10/25 04:22:07;;;;;;;1999.90;999.90;;;8.30;99.90;;;;;;5045539;28;20728;-68
2023/10/25 04:24:33;;;;;;;1999.90;999.90;;;8.30;99.90;;;;;;5043735;28;20017;-69
2023/10/25 04:27:02;;;;;;;1999.90;999.90;;;8.30;99.90;;;;;;5047994;28;20336;-68
2023/10/25 04:29:28;;;;;;;1999.90;999.90;;;8.30;99.90;;;;;;5047247;28;20318;-68
2023/10/25 04:31:54;;;;;;;1999.90;999.90;;;8.30;99.90;;;;;;5050633;28;20025;-69
2023/10/25 04:34:20;;;;;;;1999.90;999.90;;;8.20;99.90;;;;;;5049220;28;20053;-68
2023/10/25 04:36:46;;;;;;;1999.90;999.90;;;8.20;99.90;;;;;;5049831;28;20435;-69
2023/10/25 04:39:11;;;;;;;1999.90;999.90;;;8.20;99.90;;;;;;5043463;28;20036;-69
2023/10/25 04:41:39;;;;;;;1999.90;999.90;;;8.10;99.90;;;;;;5045093;28;20075;-78
2023/10/25 04:44:05;;;;;;;1999.90;999.90;;;8.10;99.90;;;;;;5042404;28;20483;-69
2023/10/25 04:46:30;;;;;;;1999.90;999.90;;;8.10;99.90;;;;;;5042893;28;20140;-69
2023/10/25 04:48:56;;;;;;;1999.90;999.90;;;8.10;99.90;;;;;;5049743;28;20115;-68
2023/10/25 04:51:21;;;;;;;1999.90;999.90;;;8.10;99.90;;;;;;5046520;28;20094;-80
2023/10/25 04:53:47;;;;;;;1999.90;999.90;;;8.10;99.90;;;;;;5046355;28;20033;-69
2023/10/25 04:56:13;;;;;;;1999.90;999.90;;;8.00;99.90;;;;;;5054883;28;20036;-68
2023/10/25 04:58:39;;;;;;;1999.90;999.90;;;8.00;99.90;;;;;;5056843;28;20013;-68
2023/10/25 05:01:14;;;;;;;1999.90;999.90;;;8.10;99.90;;;;;;5054672;28;20095;-69
2023/10/25 05:03:41;;;;;;;1999.90;999.90;;;8.10;99.90;;;;;;5047243;28;20028;-68
2023/10/25 05:06:07;;;;;;;1999.90;999.90;;;8.10;99.90;;;;;;5054410;28;20301;-68
2023/10/25 05:08:34;;;;;;;1999.90;999.90;;;8.10;99.90;;;;;;5054247;28;20032;-69
2023/10/25 05:11:03;;;;;;;1999.90;999.90;;;8.10;99.90;;;;;;5045119;28;20138;-68
2023/10/25 05:13:29;;;;;;;1999.90;999.90;;;8.10;99.90;;;;;;5053493;28;20312;-68
2023/10/25 05:15:55;;;;;;;1999.90;999.90;;;8.10;99.90;;;;;;5046109;28;20036;-69
2023/10/25 05:18:21;;;;;;;1999.90;999.90;;;8.20;99.90;;;;;;5053583;28;20328;-68
2023/10/25 05:20:56;;;;;;;1999.90;999.90;;;8.20;99.90;;;;;;5048839;28;20376;-68
2023/10/25 05:23:31;;;;;;;1999.90;999.90;;;8.20;99.90;;;;;;5047354;28;20033;-72
2023/10/25 05:26:04;;;;;;;1999.90;999.90;;;8.20;99.90;;;;;;5049182;28;20052;-68
2023/10/25 05:28:31;;;;;;;1999.90;999.90;;;8.30;99.90;;;;;;5049594;28;20078;-68
2023/10/25 05:31:01;;;;;;;1999.90;999.90;;;8.30;99.90;;;;;;5049832;28;20020;-69
2023/10/25 05:33:30;;;;;;;1999.90;999.90;;;8.40;99.90;;;;;;5048426;28;20055;-68
2023/10/25 05:35:56;;;;;;;1999.90;999.90;;;8.40;99.90;;;;;;5048894;28;20025;-68
2023/10/25 05:38:22;;;;;;;1999.90;999.90;;;8.40;99.90;;;;;;5048154;28;20022;-81
2023/10/25 05:40:48;;;;;;;1999.90;999.90;;;8.40;99.90;;;;;;5054158;28;20312;-68
2023/10/25 05:43:15;;;;;;;1999.90;999.90;;;8.50;99.90;;;;;;5052043;28;20300;-69
2023/10/25 05:45:42;;;;;;;1999.90;999.90;;;8.50;99.90;;;;;;5042341;28;20029;-81
2023/10/25 05:48:11;;;;;;;1999.90;999.90;;;8.50;99.90;;;;;;5049768;28;20064;-68
2023/10/25 05:50:37;;;;;;;1999.90;999.90;;;8.60;99.90;;;;;;5049278;28;20063;-68
2023/10/25 05:53:03;;;;;;;1999.90;999.90;;;8.60;99.90;;;;;;5054166;28;20102;-69
2023/10/25 05:55:29;;;;;;;1999.90;999.90;;;8.60;99.90;;;;;;5050340;28;20411;-69
2023/10/25 05:57:55;;;;;;;1999.90;999.90;;;8.60;99.90;;;;;;5056189;28;20056;-69
2023/10/25 06:00:22;;;;;;;1999.90;999.90;;;8.60;99.90;;;;;;5046943;28;20270;-69
2023/10/25 06:02:49;;;;;;;1999.90;999.90;;;8.70;99.90;;;;;;5048645;28;20040;-81
2023/10/25 06:05:17;;;;;;;1999.90;999.90;;;8.70;99.90;;;;;;5046266;28;20415;-69
2023/10/25 06:07:43;;;;;;;1999.90;999.90;;;8.70;99.90;;;;;;5051392;28;20035;-69
2023/10/25 06:10:10;;;;;;;1999.90;999.90;;;8.70;99.90;;;;;;5054793;28;20024;-69
2023/10/25 06:12:36;;;;;;;1999.90;999.90;;;8.80;99.90;;;;;;5047689;28;20446;-69
2023/10/25 06:15:04;;;;;;;1999.90;999.90;;;8.80;99.90;;;;;;5054293;28;20037;-69
2023/10/25 06:17:30;;;;;;;1999.90;999.90;;;8.80;99.90;;;;;;5049619;28;20021;-68
2023/10/25 06:19:55;;;;;;;1999.90;999.90;;;8.80;99.90;;;;;;5053549;28;20029;-69
2023/10/25 06:22:21;;;;;;;1999.90;999.90;;;8.80;99.90;;;;;;5055656;28;20056;-69
2023/10/25 06:24:47;;;;;;;1999.90;999.90;;;8.80;99.90;;;;;;5051480;28;20033;-69
2023/10/25 06:27:12;;;;;;;1999.90;999.90;;;8.80;99.90;;;;;;5049498;28;20090;-69
2023/10/25 06:29:38;;;;;;;1999.90;999.90;;;8.90;99.90;;;;;;5054024;28;20037;-69
2023/10/25 06:32:05;;;;;;;1999.90;999.90;;;8.90;99.90;;;;;;5052346;28;20028;-69
2023/10/25 06:34:31;;;;;;;1999.90;999.90;;;8.90;99.90;;;;;;5049742;28;20148;-69
2023/10/25 06:36:57;;;;;;;1999.90;999.90;;;8.80;99.90;;;;;;5045274;28;20065;-81
2023/10/25 06:39:23;;;;;;;1999.90;999.90;;;8.80;99.90;;;;;;5044751;28;20301;-69
2023/10/25 06:41:49;;;;;;;1999.90;999.90;;;8.80;99.90;;;;;;5043246;28;20037;-68
2023/10/25 06:44:15;;;;;;;1999.90;999.90;;;8.80;99.90;;;;;;5047307;28;20104;-69
2023/10/25 06:46:42;;;;;;;1999.90;999.90;;;8.90;99.90;;;;;;5041153;28;20282;-69
2023/10/25 06:49:08;;;;;;;1999.90;999.90;;;8.90;99.90;;;;;;5043054;28;20037;-78
2023/10/25 06:51:35;;;;;;;1999.90;999.90;;;8.90;99.90;;;;;;5047131;28;20037;-69
2023/10/25 06:54:01;;;;;;;1999.90;999.90;;;8.90;99.90;;;;;;5046624;28;20028;-78
2023/10/25 06:56:27;;;;;;;1999.90;999.90;;;8.90;99.90;;;;;;5052031;28;20029;-69
2023/10/25 06:58:53;;;;;;;1999.90;999.90;;;8.90;99.90;;;;;;5051912;28;20056;-69
2023/10/25 07:01:22;;;;;;;1999.90;999.90;;;8.90;99.90;;;;;;5049711;28;20029;-68
2023/10/25 07:03:49;;;;;;;1999.90;999.90;;;8.90;99.90;;;;;;5049585;28;20277;-69
2023/10/25 07:06:16;;;;;;;1999.90;999.90;;;9.00;99.90;;;;;;5048930;28;20029;-69
2023/10/25 07:08:42;;;;;;;;;;;9.00;99.90;;;;;;5054413;28;20036;-69
2023/10/25 07:11:07;;;;;;;1999.90;999.90;;;9.00;99.90;;;;;;5046081;28;19916;-81
2023/10/25 07:13:33;;;;;;;1999.90;999.90;;;9.00;99.90;;;;;;5044854;28;20033;-69
2023/10/25 07:15:59;;;;;;;1999.90;999.90;;;9.00;99.90;;;;;;5047017;28;20025;-69
2023/10/25 07:18:25;;;;;;;1999.90;999.90;;;9.00;99.90;;;;;;5052317;28;20311;-69
2023/10/25 07:20:51;;;;;;;1999.90;999.90;;;9.10;99.90;;;;;;5053170;28;20021;-69
2023/10/25 07:23:17;;;;;;;1999.90;999.90;;;9.10;99.90;;;;;;5051544;28;20135;-69
2023/10/25 07:25:44;;;;;;;1999.90;999.90;;;9.10;99.90;;;;;;5053796;28;20025;-69
2023/10/25 07:28:10;;;;;;;1999.90;999.90;;;9.10;99.90;;;;;;5053647;28;20032;-79
2023/10/25 07:30:36;;;;;;;1999.90;999.90;;;9.20;99.90;;;;;;5053905;28;20036;-69
2023/10/25 07:33:01;;;;;;;1999.90;999.90;;;9.20;99.90;;;;;;5047039;28;20594;-69
2023/10/25 07:35:27;;;;;;;1999.90;999.90;;;9.20;99.90;;;;;;5053218;28;20028;-69
2023/10/25 07:37:53;;;;;;;1999.90;999.90;;;9.20;99.90;;;;;;5052050;28;20493;-70
2023/10/25 07:40:19;;;;;;;1999.90;999.90;;;9.20;99.90;;;;;;5048293;28;20257;-69
2023/10/25 07:42:46;;;;;;;1999.90;999.90;;;9.30;99.90;;;;;;5051169;28;20416;-69
2023/10/25 07:45:12;;;;;;;;;;;9.30;99.90;;;;;;5056332;28;20293;-80
2023/10/25 07:47:38;;;;;;;1999.90;999.90;;;9.30;99.90;;;;;;5048284;28;19963;-81
2023/10/25 07:50:05;;;;;;;1999.90;999.90;;;9.30;99.90;;;;;;5043548;28;20339;-69
2023/10/25 07:52:33;;;;;;;1999.90;999.90;;;9.40;99.90;;;;;;5053211;28;20037;-69
2023/10/25 07:54:59;;;;;;;1999.90;999.90;;;9.40;99.90;;;;;;5046644;28;20089;-70
2023/10/25 07:57:29;;;;;;;1999.90;999.90;;;9.40;99.90;;;;;;5040993;28;20577;-69
2023/10/25 07:59:55;;;;;;;1999.90;999.90;;;9.50;99.90;;;;;;5045142;28;20022;-69
2023/10/25 08:02:20;;;;;;;1999.90;999.90;;;9.40;99.90;;;;;;5046591;28;20028;-83
2023/10/25 08:04:46;;;;;;;1999.90;999.90;;;9.50;99.90;;;;;;5051038;28;20029;-69
2023/10/25 08:07:12;;;;;;;1999.90;999.90;;;9.50;99.90;;;;;;5050227;28;20039;-69
2023/10/25 08:09:40;;;;;;;1999.90;999.90;;;9.60;99.90;;;;;;5047986;28;20324;-69
2023/10/25 08:12:06;;;;;;;1999.90;999.90;;;9.60;99.90;;;;;;5048644;28;20029;-69
2023/10/25 08:14:32;;;;;;;1999.90;999.90;;;9.60;99.90;;;;;;5050129;28;20091;-69
2023/10/25 08:16:58;;;;;;;1999.90;999.90;;;9.60;99.90;;;;;;5052216;28;20025;-69
2023/10/25 08:19:24;;;;;;;1999.90;999.90;;;9.60;99.90;;;;;;5042052;28;20434;-69
2023/10/25 08:21:49;;;;;;;1999.90;999.90;;;9.60;99.90;;;;;;5045388;28;20033;-69
2023/10/25 08:24:15;;;;;;;1999.90;999.90;;;9.70;99.90;;;;;;5050868;28;20549;-82
2023/10/25 08:26:41;;;;;;;1999.90;999.90;;;9.70;99.90;;;;;;5051947;28;20055;-69
2023/10/25 08:29:07;;;;;;;1999.90;999.90;;;9.70;99.90;;;;;;5047038;28;20115;-69
2023/10/25 08:31:33;;;;;;;1999.90;999.90;;;9.80;99.90;;;;;;5050726;28;20029;-69
2023/10/25 08:34:01;;;;;;;1999.90;999.90;;;9.80;99.90;;;;;;5052823;28;20091;-69
2023/10/25 08:36:30;;;;;;;1999.90;999.90;;;9.80;99.90;;;;;;5051631;28;20103;-69
2023/10/25 08:38:57;;;;;;;1999.90;999.90;;;9.80;99.90;;;;;;5052867;28;20415;-69
2023/10/25 08:41:27;;;;;;;1999.90;999.90;;;9.90;99.90;;;;;;5045442;28;21578;-69
2023/10/25 08:43:53;;;;;;;1999.90;999.90;;;9.90;99.90;;;;;;5055538;28;20029;-71
2023/10/25 08:46:22;;;;;;;1999.90;999.90;;;9.90;99.90;;;;;;5051329;28;20026;-69
2023/10/25 08:48:50;;;;;;;1999.90;999.90;;;10.00;99.90;;;;;;5056398;28;20112;-69
2023/10/25 08:51:15;;;;;;;1999.90;999.90;;;10.00;99.90;;;;;;5055819;28;20056;-69
2023/10/25 08:53:42;;;;;;;1999.90;999.90;;;10.00;99.90;;;;;;5059766;28;20431;-81
2023/10/25 08:56:08;;;;;;;1999.90;999.90;;;10.00;99.90;;;;;;5057073;28;20021;-69
2023/10/25 08:58:34;;;;;;;1999.90;999.90;;;10.10;99.90;;;;;;5054428;28;20065;-69
2023/10/25 09:01:00;;;;;;;1999.90;999.90;;;10.10;99.90;;;;;;5055944;28;20048;-80
2023/10/25 09:03:31;;;;;;;1999.90;999.90;;;10.10;99.90;;;;;;5053254;28;20024;-69
2023/10/25 09:05:58;;;;;;;1999.90;999.90;;;10.10;99.90;;;;;;5049893;28;20040;-69
2023/10/25 09:08:24;;;;;;;;;;;10.10;99.90;;;;;;5049082;28;20029;-69
2023/10/25 09:11:02;;;;;;;1999.90;999.90;;;10.10;99.90;;;;;;5056894;28;19983;-69
2023/10/25 09:13:34;;;;;;;1999.90;999.90;;;10.10;99.90;;;;;;5053780;28;20029;-69
2023/10/25 09:16:10;;;;;;;1999.90;999.90;;;10.10;99.90;;;;;;5055145;28;20036;-69
2023/10/25 09:18:37;;;;;;;;;;;10.20;99.90;;;;;;5057735;28;20036;-69
2023/10/25 09:21:04;;;;;;;1999.90;999.90;;;10.20;99.90;;;;;;5054584;28;20258;-69
2023/10/25 09:23:30;;;;;;;1999.90;999.90;;;10.20;99.90;;;;;;5052609;28;20026;-69
2023/10/25 09:25:58;;;;;;;1999.90;999.90;;;10.20;99.90;;;;;;5047039;28;20025;-69
2023/10/25 09:28:28;;;;;;;1999.90;999.90;;;10.20;99.90;;;;;;5050734;28;20375;-69
2023/10/25 09:30:58;;;;;;;1999.90;999.90;;;10.20;99.90;;;;;;5054443;28;20020;-70
2023/10/25 09:33:28;;;;;;;1999.90;999.90;;;10.20;99.90;;;;;;5061430;28;20403;-69
2023/10/25 09:35:54;;;;;;;1999.90;999.90;;;10.20;99.90;;;;;;5046945;28;20301;-69
2023/10/25 09:38:20;;;;;;;1999.90;999.90;;;10.20;99.90;;;;;;5054246;28;20033;-70
2023/10/25 09:40:46;;;;;;;1999.90;999.90;;;10.20;99.90;;;;;;5051003;28;20040;-70
2023/10/25 09:43:20;;;;;;;1999.90;999.90;;;10.20;99.90;;;;;;5049452;28;20028;-70
2023/10/25 09:45:56;;;;;;;1999.90;999.90;;;10.20;99.90;;;;;;5059886;28;20025;-70
2023/10/25 09:48:22;;;;;;;1999.90;999.90;;;10.20;99.90;;;;;;5047438;28;20580;-79
2023/10/25 09:51:03;;;;;;;1999.90;999.90;;;10.20;99.90;;;;;;5047834;28;20045;-70
2023/10/25 09:53:56;;;;;;;1999.90;999.90;;;10.20;99.90;;;;;;5051117;28;20067;-78
2023/10/25 09:56:23;;;;;;;1999.90;999.90;;;10.20;99.90;;;;;;5052774;28;20049;-79
2023/10/25 09:58:50;;;;;;;1999.90;999.90;;;10.20;99.90;;;;;;5049159;28;20033;-70
2023/10/25 10:01:16;;;;;;;1999.90;999.90;;;10.20;99.90;;;;;;5043669;28;20039;-70
2023/10/25 10:04:08;;;;;;;1999.90;999.90;;;10.20;99.90;;;;;;5050335;28;20109;-70
2023/10/25 10:06:56;;;;;;;1999.90;999.90;;;10.30;99.90;;;;;;5045482;28;20033;-70
2023/10/25 10:09:41;;;;;;;1999.90;999.90;;;10.40;99.90;;;;;;5055485;28;20378;-70
2023/10/25 10:12:07;;;;;;;1999.90;999.90;;;10.30;99.90;;;;;;5050136;28;20189;-70
2023/10/25 10:14:37;;;;;;;1999.90;999.90;;;10.30;99.90;;;;;;5050342;28;20324;-70
2023/10/25 10:17:14;;;;;;;1999.90;999.90;;;10.30;99.90;;;;;;5052374;28;20079;-70
2023/10/25 10:19:50;;;;;;;;;;;10.40;99.90;;;;;;5047713;28;20037;-70
2023/10/25 10:22:18;;;;;;;1999.90;999.90;;;10.40;99.90;;;;;;5054982;28;19912;-70
2023/10/25 10:24:58;;;;;;;1999.90;999.90;;;10.40;99.90;;;;;;5049984;28;20159;-70
2023/10/25 10:27:54;;;;;;;1999.90;999.90;;;10.40;99.90;;;;;;5042564;28;20056;-70
2023/10/25 10:30:39;;;;;;;1999.90;999.90;;;10.50;99.90;;;;;;5046840;28;20033;-69
2023/10/25 10:33:10;;;;;;;1999.90;999.90;;;10.60;99.90;;;;;;5050463;28;20028;-69
2023/10/25 10:35:47;;;;;;;1999.90;999.90;;;10.60;99.90;;;;;;5054662;28;20035;-69
2023/10/25 10:38:12;;;;;;;1999.90;999.90;;;10.50;99.90;;;;;;5053727;28;20037;-70
2023/10/25 10:40:38;;;;;;;1999.90;999.90;;;10.60;99.90;;;;;;5052132;28;20046;-69
2023/10/25 10:43:06;;;;;;;1999.90;999.90;;;10.60;99.90;;;;;;5044736;28;20390;-69
2023/10/25 10:45:32;;;;;;;1999.90;999.90;;;10.60;99.90;;;;;;5047855;28;20017;-69
2023/10/25 10:48:19;;;;;;;1999.90;999.90;;;10.50;99.90;;;;;;5048150;28;20124;-69
2023/10/25 10:50:47;;;;;;;1999.90;999.90;;;10.50;99.90;;;;;;5046095;28;20072;-70
2023/10/25 10:53:13;;;;;;;1999.90;999.90;;;10.50;99.90;;;;;;5042177;28;20124;-69
2023/10/25 10:55:40;;;;;;;1999.90;999.90;;;10.50;99.90;;;;;;5048856;28;20108;-69
2023/10/25 10:58:05;;;;;;;;;;;10.60;99.90;;;;;;5053988;28;20246;-69
2023/10/25 11:00:31;;;;;;;1999.90;999.90;;;10.50;99.90;;;;;;5046550;28;20378;-70
2023/10/25 11:03:02;;;;;;;1999.90;999.90;;;10.50;99.90;;;;;;5043945;28;20048;-69
2023/10/25 11:05:27;;;;;;;1999.90;999.90;;;10.50;99.90;;;;;;5042482;28;20022;-69
2023/10/25 11:07:53;;;;;;;1999.90;999.90;;;10.50;99.90;;;;;;5051732;28;20032;-70
2023/10/25 11:10:19;;;;;;;1999.90;999.90;;;10.50;99.90;;;;;;5045463;28;20029;-79
2023/10/25 11:12:45;;;;;;;1999.90;999.90;;;10.50;99.90;;;;;;5042554;28;20047;-69
2023/10/25 11:15:12;;;;;;;1999.90;999.90;;;10.50;99.90;;;;;;5039330;28;20108;-70
2023/10/25 11:17:38;;;;;;;1999.90;999.90;;;10.40;99.90;;;;;;5047527;28;20736;-69
2023/10/25 11:20:06;;;;;;;1999.90;999.90;;;10.50;99.90;;;;;;5047790;28;20037;-70
2023/10/25 11:22:32;;;;;;;1999.90;999.90;;;10.50;99.90;;;;;;5057033;28;20028;-70
2023/10/25 11:24:58;;;;;;;1999.90;999.90;;;10.40;99.90;;;;;;5052317;28;20100;-70
2023/10/25 11:27:35;;;;;;;1999.90;999.90;;;10.40;99.90;;;;;;5053808;28;20028;-70
2023/10/25 11:30:01;;;;;;;1999.90;999.90;;;10.50;99.90;;;;;;5052451;28;20407;-69
2023/10/25 11:32:29;;;;;;;1999.90;999.90;;;10.50;99.90;;;;;;5055931;28;20028;-70
2023/10/25 11:34:59;;;;;;;1999.90;999.90;;;10.50;99.90;;;;;;5052316;28;20037;-70
2023/10/25 11:37:25;;;;;;;1999.90;999.90;;;10.50;99.90;;;;;;5049911;28;20124;-70
2023/10/25 11:40:01;;;;;;;1999.90;999.90;;;10.50;99.90;;;;;;5046003;28;20112;-79
2023/10/25 11:42:35;;;;;;;1999.90;999.90;;;10.50;99.90;;;;;;5047850;28;20316;-70
2023/10/25 11:45:03;;;;;;;1999.90;999.90;;;10.50;99.90;;;;;;5053828;28;20032;-69
2023/10/25 11:47:34;;;;;;;1999.90;999.90;;;10.50;99.90;;;;;;5041466;28;20029;-70
2023/10/25 11:50:01;;;;;;;1999.90;999.90;;;10.60;99.90;;;;;;5046540;28;20068;-70
2023/10/25 11:52:28;;;;;;;1999.90;999.90;;;10.50;99.90;;;;;;5046086;28;20040;-69
2023/10/25 11:54:57;;;;;;;1999.90;999.90;;;10.50;99.90;;;;;;5049014;28;20112;-71
2023/10/25 11:57:31;;;;;;;1999.90;999.90;;;10.50;99.90;;;;;;5042139;28;20123;-70
2023/10/25 11:59:57;;;;;;;1999.90;999.90;;;10.50;99.90;;;;;;5046304;28;20443;-70
2023/10/25 12:02:25;;;;;;;1999.90;999.90;;;10.50;99.90;;;;;;5045660;28;20124;-70
2023/10/25 12:04:52;;;;;;;1999.90;999.90;;;10.50;99.90;;;;;;5040407;28;20034;-70
2023/10/25 12:07:20;;;;;;;;;;;10.60;99.90;;;;;;5047172;28;20032;-69
2023/10/25 12:09:46;;;;;;;1999.90;999.90;;;10.60;99.90;;;;;;5046424;28;19912;-69